PWSweather.com
Personal Weather Stations
Station Observations
BREEJEDURP
'sGravenzande, WestlandNL

'sGravenzandeWestlandNL

Lat: 52.00095260000001, Lon: 4.174256600000035

Elevation: 3

Station Type: Davis Vantage Pro2 Plus

www.breejedurp.nl

High Low Average
Temperature 42.1°F5.6°C 33.3°F0.7°C 37.4°F3.0°C
Dew Point 40.5°F4.7°C 30.7°F-0.7°C 35.3°F1.8°C
Winds 9.0 mph 14.5 kmh Calm Calm 4.0 mph SE6.4 kmh SE
Wind Gusts 15.0 mph24.1 kmh 1.0 mph1.6 kmh 7.0 mph11.3 kmh
Humidity 96% 87% 92%
Pressure 30.04 in1017.3 mb 29.75 in1007.5 mb -
Precipitation 0.00 in0.0 mm - -
Hour Temp Dew Point Humidity Winds Wind Gusts Pressure Precip Precip Rate Daily Precip Total
12:04 AM 34.2°F1.2°C 30.7°F-0.7°C 87% 5.0 mph E8.0 kmh E 9.0 mph14.5 kmh 30.04 in1017.3 mb 0.00 in0.0 mm 0.00 in0.0 mm 0.00 in0.0 mm
12:09 AM 34.2°F1.2°C 30.7°F-0.7°C 87% 6.0 mph ENE9.7 kmh ENE 11.0 mph17.7 kmh 30.04 in1017.3 mb 0.00 in0.0 mm 0.00 in0.0 mm 0.00 in0.0 mm
12:14 AM 34.2°F1.2°C 30.7°F-0.7°C 87% 3.0 mph E4.8 kmh E 5.0 mph8.0 kmh 30.03 in1016.9 mb 0.00 in0.0 mm 0.00 in0.0 mm 0.00 in0.0 mm
12:19 AM 34.2°F1.2°C 30.7°F-0.7°C 87% 3.0 mph ESE4.8 kmh ESE 4.0 mph6.4 kmh 30.03 in1016.9 mb 0.00 in0.0 mm 0.00 in0.0 mm 0.00 in0.0 mm
12:24 AM 34.2°F1.2°C 31.0°F-0.6°C 88% 4.0 mph E6.4 kmh E 9.0 mph14.5 kmh 30.03 in1016.9 mb 0.00 in0.0 mm 0.00 in0.0 mm 0.00 in0.0 mm
12:29 AM 34.2°F1.2°C 31.0°F-0.6°C 88% 9.0 mph ENE14.5 kmh ENE 13.0 mph20.9 kmh 30.02 in1016.6 mb 0.00 in0.0 mm 0.00 in0.0 mm 0.00 in0.0 mm
12:34 AM 34.2°F1.2°C 31.0°F-0.6°C 88% 7.0 mph ENE11.3 kmh ENE 11.0 mph17.7 kmh 30.02 in1016.6 mb 0.00 in0.0 mm 0.00 in0.0 mm 0.00 in0.0 mm
12:39 AM 34.2°F1.2°C 31.0°F-0.6°C 88% 7.0 mph E11.3 kmh E 12.0 mph19.3 kmh 30.02 in1016.6 mb 0.00 in0.0 mm 0.00 in0.0 mm 0.00 in0.0 mm
12:44 AM 34.2°F1.2°C 31.0°F-0.6°C 88% 4.0 mph SE6.4 kmh SE 11.0 mph17.7 kmh 30.01 in1016.3 mb 0.00 in0.0 mm 0.00 in0.0 mm 0.00 in0.0 mm
12:49 AM 34.3°F1.3°C 31.2°F-0.4°C 88% 8.0 mph E12.9 kmh E 13.0 mph20.9 kmh 30.01 in1016.3 mb 0.00 in0.0 mm 0.00 in0.0 mm 0.00 in0.0 mm
12:54 AM 34.3°F1.3°C 31.2°F-0.4°C 88% 4.0 mph SE6.4 kmh SE 8.0 mph12.9 kmh 30.01 in1016.3 mb 0.00 in0.0 mm 0.00 in0.0 mm 0.00 in0.0 mm
12:59 AM 34.3°F1.3°C 31.2°F-0.4°C 88% 6.0 mph ENE9.7 kmh ENE 11.0 mph17.7 kmh 30.01 in1016.3 mb 0.00 in0.0 mm 0.00 in0.0 mm 0.00 in0.0 mm
01:04 AM 34.3°F1.3°C 31.4°F-0.3°C 89% 6.0 mph ESE9.7 kmh ESE 12.0 mph19.3 kmh 30.01 in1016.3 mb 0.00 in0.0 mm 0.00 in0.0 mm 0.00 in0.0 mm
01:09 AM 34.5°F1.4°C 31.6°F-0.2°C 89% 5.0 mph SE8.0 kmh SE 8.0 mph12.9 kmh 30.01 in1016.3 mb 0.00 in0.0 mm 0.00 in0.0 mm 0.00 in0.0 mm
01:14 AM 34.3°F1.3°C 31.2°F-0.4°C 88% 5.0 mph E8.0 kmh E 9.0 mph14.5 kmh 30.01 in1016.3 mb 0.00 in0.0 mm 0.00 in0.0 mm 0.00 in0.0 mm
01:19 AM 34.3°F1.3°C 31.4°F-0.3°C 89% 5.0 mph E8.0 kmh E 9.0 mph14.5 kmh 30.00 in1015.9 mb 0.00 in0.0 mm 0.00 in0.0 mm 0.00 in0.0 mm
01:24 AM 34.3°F1.3°C 31.4°F-0.3°C 89% 5.0 mph SE8.0 kmh SE 8.0 mph12.9 kmh 30.00 in1015.9 mb 0.00 in0.0 mm 0.00 in0.0 mm 0.00 in0.0 mm
01:29 AM 34.3°F1.3°C 31.4°F-0.3°C 89% 4.0 mph E6.4 kmh E 7.0 mph11.3 kmh 29.99 in1015.6 mb 0.00 in0.0 mm 0.00 in0.0 mm 0.00 in0.0 mm
01:34 AM 34.3°F1.3°C 31.4°F-0.3°C 89% 5.0 mph E8.0 kmh E 7.0 mph11.3 kmh 29.99 in1015.6 mb 0.00 in0.0 mm 0.00 in0.0 mm 0.00 in0.0 mm
01:39 AM 34.2°F1.2°C 31.3°F-0.4°C 89% 7.0 mph E11.3 kmh E 11.0 mph17.7 kmh 29.98 in1015.2 mb 0.00 in0.0 mm 0.00 in0.0 mm 0.00 in0.0 mm
01:44 AM 34.2°F1.2°C 31.5°F-0.3°C 90% 5.0 mph SE8.0 kmh SE 8.0 mph12.9 kmh 29.98 in1015.2 mb 0.00 in0.0 mm 0.00 in0.0 mm 0.00 in0.0 mm
01:49 AM 34.3°F1.3°C 31.7°F-0.2°C 90% 9.0 mph E14.5 kmh E 12.0 mph19.3 kmh 29.98 in1015.2 mb 0.00 in0.0 mm 0.00 in0.0 mm 0.00 in0.0 mm
01:54 AM 34.3°F1.3°C 31.7°F-0.2°C 90% 6.0 mph ESE9.7 kmh ESE 10.0 mph16.1 kmh 29.98 in1015.2 mb 0.00 in0.0 mm 0.00 in0.0 mm 0.00 in0.0 mm
01:59 AM 34.3°F1.3°C 31.7°F-0.2°C 90% 6.0 mph SE9.7 kmh SE 9.0 mph14.5 kmh 29.98 in1015.2 mb 0.00 in0.0 mm 0.00 in0.0 mm 0.00 in0.0 mm
02:04 AM 34.3°F1.3°C 31.7°F-0.2°C 90% 8.0 mph E12.9 kmh E 15.0 mph24.1 kmh 29.98 in1015.2 mb 0.00 in0.0 mm 0.00 in0.0 mm 0.00 in0.0 mm
02:09 AM 34.3°F1.3°C 31.7°F-0.2°C 90% 7.0 mph E11.3 kmh E 9.0 mph14.5 kmh 29.98 in1015.2 mb 0.00 in0.0 mm 0.00 in0.0 mm 0.00 in0.0 mm
02:14 AM 34.3°F1.3°C 31.7°F-0.2°C 90% 6.0 mph E9.7 kmh E 11.0 mph17.7 kmh 29.97 in1014.9 mb 0.00 in0.0 mm 0.00 in0.0 mm 0.00 in0.0 mm
02:19 AM 34.2°F1.2°C 31.5°F-0.3°C 90% 9.0 mph ENE14.5 kmh ENE 13.0 mph20.9 kmh 29.97 in1014.9 mb 0.00 in0.0 mm 0.00 in0.0 mm 0.00 in0.0 mm
02:24 AM 34.2°F1.2°C 31.8°F-0.1°C 91% 5.0 mph E8.0 kmh E 8.0 mph12.9 kmh 29.97 in1014.9 mb 0.00 in0.0 mm 0.00 in0.0 mm 0.00 in0.0 mm
02:29 AM 34.2°F1.2°C 31.8°F-0.1°C 91% 9.0 mph E14.5 kmh E 14.0 mph22.5 kmh 29.96 in1014.6 mb 0.00 in0.0 mm 0.00 in0.0 mm 0.00 in0.0 mm
02:34 AM 34.2°F1.2°C 31.8°F-0.1°C 91% 5.0 mph SE8.0 kmh SE 8.0 mph12.9 kmh 29.96 in1014.6 mb 0.00 in0.0 mm 0.00 in0.0 mm 0.00 in0.0 mm
02:39 AM 34.3°F1.3°C 32.0°F0.0°C 91% 4.0 mph E6.4 kmh E 8.0 mph12.9 kmh 29.96 in1014.6 mb 0.00 in0.0 mm 0.00 in0.0 mm 0.00 in0.0 mm
02:44 AM 34.2°F1.2°C 31.8°F-0.1°C 91% 4.0 mph E6.4 kmh E 7.0 mph11.3 kmh 29.96 in1014.6 mb 0.00 in0.0 mm 0.00 in0.0 mm 0.00 in0.0 mm
02:49 AM 34.2°F1.2°C 31.8°F-0.1°C 91% 4.0 mph E6.4 kmh E 7.0 mph11.3 kmh 29.96 in1014.6 mb 0.00 in0.0 mm 0.00 in0.0 mm 0.00 in0.0 mm
02:54 AM 34.3°F1.3°C 32.0°F0.0°C 91% 4.0 mph SSE6.4 kmh SSE 8.0 mph12.9 kmh 29.96 in1014.6 mb 0.00 in0.0 mm 0.00 in0.0 mm 0.00 in0.0 mm
02:59 AM 34.3°F1.3°C 32.0°F0.0°C 91% 4.0 mph SE6.4 kmh SE 7.0 mph11.3 kmh 29.97 in1014.9 mb 0.00 in0.0 mm 0.00 in0.0 mm 0.00 in0.0 mm
03:04 AM 34.3°F1.3°C 32.0°F0.0°C 91% 4.0 mph ESE6.4 kmh ESE 6.0 mph9.7 kmh 29.96 in1014.6 mb 0.00 in0.0 mm 0.00 in0.0 mm 0.00 in0.0 mm
03:09 AM 34.3°F1.3°C 32.0°F0.0°C 91% 3.0 mph SE4.8 kmh SE 5.0 mph8.0 kmh 29.96 in1014.6 mb 0.00 in0.0 mm 0.00 in0.0 mm 0.00 in0.0 mm
03:14 AM 34.3°F1.3°C 32.0°F0.0°C 91% 5.0 mph SE8.0 kmh SE 8.0 mph12.9 kmh 29.96 in1014.6 mb 0.00 in0.0 mm 0.00 in0.0 mm 0.00 in0.0 mm
03:19 AM 34.3°F1.3°C 32.0°F0.0°C 91% 5.0 mph E8.0 kmh E 10.0 mph16.1 kmh 29.96 in1014.6 mb 0.00 in0.0 mm 0.00 in0.0 mm 0.00 in0.0 mm
03:24 AM 34.3°F1.3°C 32.0°F0.0°C 91% 3.0 mph E4.8 kmh E 4.0 mph6.4 kmh 29.96 in1014.6 mb 0.00 in0.0 mm 0.00 in0.0 mm 0.00 in0.0 mm
03:29 AM 34.2°F1.2°C 31.8°F-0.1°C 91% 5.0 mph SE8.0 kmh SE 9.0 mph14.5 kmh 29.95 in1014.2 mb 0.00 in0.0 mm 0.00 in0.0 mm 0.00 in0.0 mm
03:34 AM 34.3°F1.3°C 32.0°F0.0°C 91% 4.0 mph E6.4 kmh E 7.0 mph11.3 kmh 29.95 in1014.2 mb 0.00 in0.0 mm 0.00 in0.0 mm 0.00 in0.0 mm
03:39 AM 34.3°F1.3°C 32.0°F0.0°C 91% 4.0 mph E6.4 kmh E 7.0 mph11.3 kmh 29.95 in1014.2 mb 0.00 in0.0 mm 0.00 in0.0 mm 0.00 in0.0 mm
03:44 AM 34.3°F1.3°C 32.0°F0.0°C 91% 5.0 mph E8.0 kmh E 9.0 mph14.5 kmh 29.95 in1014.2 mb 0.00 in0.0 mm 0.00 in0.0 mm 0.00 in0.0 mm
03:49 AM 34.3°F1.3°C 32.0°F0.0°C 91% 7.0 mph ESE11.3 kmh ESE 10.0 mph16.1 kmh 29.95 in1014.2 mb 0.00 in0.0 mm 0.00 in0.0 mm 0.00 in0.0 mm
03:54 AM 34.5°F1.4°C 32.2°F0.1°C 91% 5.0 mph SE8.0 kmh SE 8.0 mph12.9 kmh 29.95 in1014.2 mb 0.00 in0.0 mm 0.00 in0.0 mm 0.00 in0.0 mm
03:59 AM 34.5°F1.4°C 32.2°F0.1°C 91% 6.0 mph E9.7 kmh E 11.0 mph17.7 kmh 29.95 in1014.2 mb 0.00 in0.0 mm 0.00 in0.0 mm 0.00 in0.0 mm
04:04 AM 34.5°F1.4°C 32.2°F0.1°C 91% 3.0 mph ESE4.8 kmh ESE 5.0 mph8.0 kmh 29.95 in1014.2 mb 0.00 in0.0 mm 0.00 in0.0 mm 0.00 in0.0 mm
04:09 AM 34.5°F1.4°C 32.2°F0.1°C 91% 6.0 mph ESE9.7 kmh ESE 10.0 mph16.1 kmh 29.95 in1014.2 mb 0.00 in0.0 mm 0.00 in0.0 mm 0.00 in0.0 mm
04:14 AM 34.5°F1.4°C 32.2°F0.1°C 91% 6.0 mph ESE9.7 kmh ESE 10.0 mph16.1 kmh 29.95 in1014.2 mb 0.00 in0.0 mm 0.00 in0.0 mm 0.00 in0.0 mm
04:19 AM 34.5°F1.4°C 32.2°F0.1°C 91% 5.0 mph ESE8.0 kmh ESE 7.0 mph11.3 kmh 29.95 in1014.2 mb 0.00 in0.0 mm 0.00 in0.0 mm 0.00 in0.0 mm
04:24 AM 34.5°F1.4°C 32.2°F0.1°C 91% 4.0 mph SE6.4 kmh SE 7.0 mph11.3 kmh 29.95 in1014.2 mb 0.00 in0.0 mm 0.00 in0.0 mm 0.00 in0.0 mm
04:29 AM 34.5°F1.4°C 32.2°F0.1°C 91% 4.0 mph ESE6.4 kmh ESE 9.0 mph14.5 kmh 29.95 in1014.2 mb 0.00 in0.0 mm 0.00 in0.0 mm 0.00 in0.0 mm
04:34 AM 34.5°F1.4°C 32.2°F0.1°C 91% 5.0 mph SE8.0 kmh SE 7.0 mph11.3 kmh 29.94 in1013.9 mb 0.00 in0.0 mm 0.00 in0.0 mm 0.00 in0.0 mm
04:39 AM 34.5°F1.4°C 32.2°F0.1°C 91% 4.0 mph SE6.4 kmh SE 6.0 mph9.7 kmh 29.94 in1013.9 mb 0.00 in0.0 mm 0.00 in0.0 mm 0.00 in0.0 mm
04:44 AM 34.5°F1.4°C 32.2°F0.1°C 91% 3.0 mph E4.8 kmh E 4.0 mph6.4 kmh 29.94 in1013.9 mb 0.00 in0.0 mm 0.00 in0.0 mm 0.00 in0.0 mm
04:49 AM 34.3°F1.3°C 32.0°F0.0°C 91% 3.0 mph E4.8 kmh E 7.0 mph11.3 kmh 29.93 in1013.5 mb 0.00 in0.0 mm 0.00 in0.0 mm 0.00 in0.0 mm
04:54 AM 34.2°F1.2°C 31.8°F-0.1°C 91% 4.0 mph E6.4 kmh E 8.0 mph12.9 kmh 29.93 in1013.5 mb 0.00 in0.0 mm 0.00 in0.0 mm 0.00 in0.0 mm
04:59 AM 34.3°F1.3°C 32.0°F0.0°C 91% 6.0 mph ENE9.7 kmh ENE 10.0 mph16.1 kmh 29.93 in1013.5 mb 0.00 in0.0 mm 0.00 in0.0 mm 0.00 in0.0 mm
05:04 AM 34.2°F1.2°C 31.8°F-0.1°C 91% 4.0 mph E6.4 kmh E 8.0 mph12.9 kmh 29.93 in1013.5 mb 0.00 in0.0 mm 0.00 in0.0 mm 0.00 in0.0 mm
05:09 AM 34.2°F1.2°C 32.1°F0.1°C 92% 4.0 mph E6.4 kmh E 7.0 mph11.3 kmh 29.93 in1013.5 mb 0.00 in0.0 mm 0.00 in0.0 mm 0.00 in0.0 mm
05:14 AM 34.2°F1.2°C 31.8°F-0.1°C 91% 3.0 mph ESE4.8 kmh ESE 4.0 mph6.4 kmh 29.93 in1013.5 mb 0.00 in0.0 mm 0.00 in0.0 mm 0.00 in0.0 mm
05:19 AM 34.0°F1.1°C 31.6°F-0.2°C 91% 5.0 mph E8.0 kmh E 8.0 mph12.9 kmh 29.92 in1013.2 mb 0.00 in0.0 mm 0.00 in0.0 mm 0.00 in0.0 mm
05:24 AM 34.0°F1.1°C 31.9°F-0.1°C 92% 5.0 mph E8.0 kmh E 9.0 mph14.5 kmh 29.91 in1012.9 mb 0.00 in0.0 mm 0.00 in0.0 mm 0.00 in0.0 mm
05:29 AM 34.0°F1.1°C 31.9°F-0.1°C 92% 5.0 mph E8.0 kmh E 8.0 mph12.9 kmh 29.91 in1012.9 mb 0.00 in0.0 mm 0.00 in0.0 mm 0.00 in0.0 mm
05:34 AM 34.0°F1.1°C 31.9°F-0.1°C 92% 4.0 mph E6.4 kmh E 6.0 mph9.7 kmh 29.91 in1012.9 mb 0.00 in0.0 mm 0.00 in0.0 mm 0.00 in0.0 mm
05:39 AM 34.2°F1.2°C 32.1°F0.1°C 92% 5.0 mph ESE8.0 kmh ESE 9.0 mph14.5 kmh 29.91 in1012.9 mb 0.00 in0.0 mm 0.00 in0.0 mm 0.00 in0.0 mm
05:44 AM 34.2°F1.2°C 32.1°F0.1°C 92% 3.0 mph ESE4.8 kmh ESE 5.0 mph8.0 kmh 29.91 in1012.9 mb 0.00 in0.0 mm 0.00 in0.0 mm 0.00 in0.0 mm
05:49 AM 34.2°F1.2°C 32.1°F0.1°C 92% 3.0 mph SE4.8 kmh SE 4.0 mph6.4 kmh 29.91 in1012.9 mb 0.00 in0.0 mm 0.00 in0.0 mm 0.00 in0.0 mm
05:54 AM 34.2°F1.2°C 31.8°F-0.1°C 91% 6.0 mph ENE9.7 kmh ENE 9.0 mph14.5 kmh 29.90 in1012.5 mb 0.00 in0.0 mm 0.00 in0.0 mm 0.00 in0.0 mm
05:59 AM 34.3°F1.3°C 32.3°F0.2°C 92% 4.0 mph ESE6.4 kmh ESE 7.0 mph11.3 kmh 29.90 in1012.5 mb 0.00 in0.0 mm 0.00 in0.0 mm 0.00 in0.0 mm
06:04 AM 34.2°F1.2°C 32.1°F0.1°C 92% 3.0 mph E4.8 kmh E 5.0 mph8.0 kmh 29.90 in1012.5 mb 0.00 in0.0 mm 0.00 in0.0 mm 0.00 in0.0 mm
06:09 AM 34.2°F1.2°C 32.1°F0.1°C 92% 5.0 mph ENE8.0 kmh ENE 9.0 mph14.5 kmh 29.89 in1012.2 mb 0.00 in0.0 mm 0.00 in0.0 mm 0.00 in0.0 mm
06:14 AM 34.2°F1.2°C 32.1°F0.1°C 92% 5.0 mph E8.0 kmh E 9.0 mph14.5 kmh 29.89 in1012.2 mb 0.00 in0.0 mm 0.00 in0.0 mm 0.00 in0.0 mm
06:19 AM 34.2°F1.2°C 32.1°F0.1°C 92% 6.0 mph E9.7 kmh E 8.0 mph12.9 kmh 29.89 in1012.2 mb 0.00 in0.0 mm 0.00 in0.0 mm 0.00 in0.0 mm
06:24 AM 34.0°F1.1°C 31.9°F-0.1°C 92% 3.0 mph ENE4.8 kmh ENE 6.0 mph9.7 kmh 29.89 in1012.2 mb 0.00 in0.0 mm 0.00 in0.0 mm 0.00 in0.0 mm
06:29 AM 34.0°F1.1°C 31.9°F-0.1°C 92% 3.0 mph ENE4.8 kmh ENE 7.0 mph11.3 kmh 29.89 in1012.2 mb 0.00 in0.0 mm 0.00 in0.0 mm 0.00 in0.0 mm
06:34 AM 33.8°F1.0°C 31.7°F-0.2°C 92% 4.0 mph ENE6.4 kmh ENE 9.0 mph14.5 kmh 29.89 in1012.2 mb 0.00 in0.0 mm 0.00 in0.0 mm 0.00 in0.0 mm
06:39 AM 33.8°F1.0°C 31.7°F-0.2°C 92% 4.0 mph E6.4 kmh E 8.0 mph12.9 kmh 29.89 in1012.2 mb 0.00 in0.0 mm 0.00 in0.0 mm 0.00 in0.0 mm
06:44 AM 33.6°F0.9°C 31.6°F-0.2°C 92% 4.0 mph SE6.4 kmh SE 7.0 mph11.3 kmh 29.88 in1011.9 mb 0.00 in0.0 mm 0.00 in0.0 mm 0.00 in0.0 mm
06:49 AM 33.6°F0.9°C 31.6°F-0.2°C 92% 2.0 mph E3.2 kmh E 3.0 mph4.8 kmh 29.88 in1011.9 mb 0.00 in0.0 mm 0.00 in0.0 mm 0.00 in0.0 mm
06:54 AM 33.6°F0.9°C 31.6°F-0.2°C 92% 3.0 mph E4.8 kmh E 8.0 mph12.9 kmh 29.88 in1011.9 mb 0.00 in0.0 mm 0.00 in0.0 mm 0.00 in0.0 mm
06:59 AM 33.6°F0.9°C 31.6°F-0.2°C 92% 4.0 mph E6.4 kmh E 8.0 mph12.9 kmh 29.88 in1011.9 mb 0.00 in0.0 mm 0.00 in0.0 mm 0.00 in0.0 mm
07:04 AM 33.4°F0.8°C 31.4°F-0.3°C 92% 1.0 mph SE1.6 kmh SE 3.0 mph4.8 kmh 29.89 in1012.2 mb 0.00 in0.0 mm 0.00 in0.0 mm 0.00 in0.0 mm
07:09 AM 33.4°F0.8°C 31.4°F-0.3°C 92% 1.0 mph ENE1.6 kmh ENE 2.0 mph3.2 kmh 29.88 in1011.9 mb 0.00 in0.0 mm 0.00 in0.0 mm 0.00 in0.0 mm
07:14 AM 33.3°F0.7°C 31.2°F-0.4°C 92% 3.0 mph E4.8 kmh E 5.0 mph8.0 kmh 29.88 in1011.9 mb 0.00 in0.0 mm 0.00 in0.0 mm 0.00 in0.0 mm
07:19 AM 33.4°F0.8°C 31.4°F-0.3°C 92% 2.0 mph E3.2 kmh E 4.0 mph6.4 kmh 29.88 in1011.9 mb 0.00 in0.0 mm 0.00 in0.0 mm 0.00 in0.0 mm
07:24 AM 33.3°F0.7°C 31.2°F-0.4°C 92% 4.0 mph ENE6.4 kmh ENE 6.0 mph9.7 kmh 29.87 in1011.5 mb 0.00 in0.0 mm 0.00 in0.0 mm 0.00 in0.0 mm
07:29 AM 33.3°F0.7°C 31.5°F-0.3°C 93% 4.0 mph ENE6.4 kmh ENE 8.0 mph12.9 kmh 29.87 in1011.5 mb 0.00 in0.0 mm 0.00 in0.0 mm 0.00 in0.0 mm
07:34 AM 33.4°F0.8°C 31.6°F-0.2°C 93% 3.0 mph E4.8 kmh E 5.0 mph8.0 kmh 29.87 in1011.5 mb 0.00 in0.0 mm 0.00 in0.0 mm 0.00 in0.0 mm
07:39 AM 33.3°F0.7°C 31.5°F-0.3°C 93% 3.0 mph ENE4.8 kmh ENE 8.0 mph12.9 kmh 29.87 in1011.5 mb 0.00 in0.0 mm 0.00 in0.0 mm 0.00 in0.0 mm
07:44 AM 33.3°F0.7°C 31.5°F-0.3°C 93% 2.0 mph SE3.2 kmh SE 3.0 mph4.8 kmh 29.87 in1011.5 mb 0.00 in0.0 mm 0.00 in0.0 mm 0.00 in0.0 mm
07:49 AM 33.3°F0.7°C 31.5°F-0.3°C 93% 2.0 mph ESE3.2 kmh ESE 4.0 mph6.4 kmh 29.87 in1011.5 mb 0.00 in0.0 mm 0.00 in0.0 mm 0.00 in0.0 mm
07:54 AM 33.3°F0.7°C 31.5°F-0.3°C 93% 2.0 mph SSE3.2 kmh SSE 3.0 mph4.8 kmh 29.86 in1011.2 mb 0.00 in0.0 mm 0.00 in0.0 mm 0.00 in0.0 mm
07:59 AM 33.4°F0.8°C 31.6°F-0.2°C 93% 3.0 mph SE4.8 kmh SE 7.0 mph11.3 kmh 29.86 in1011.2 mb 0.00 in0.0 mm 0.00 in0.0 mm 0.00 in0.0 mm
08:04 AM 33.4°F0.8°C 31.6°F-0.2°C 93% 5.0 mph SE8.0 kmh SE 7.0 mph11.3 kmh 29.87 in1011.5 mb 0.00 in0.0 mm 0.00 in0.0 mm 0.00 in0.0 mm
08:09 AM 33.6°F0.9°C 31.8°F-0.1°C 93% 3.0 mph ESE4.8 kmh ESE 4.0 mph6.4 kmh 29.87 in1011.5 mb 0.00 in0.0 mm 0.00 in0.0 mm 0.00 in0.0 mm
08:14 AM 33.6°F0.9°C 31.8°F-0.1°C 93% 6.0 mph ESE9.7 kmh ESE 9.0 mph14.5 kmh 29.87 in1011.5 mb 0.00 in0.0 mm 0.00 in0.0 mm 0.00 in0.0 mm
08:19 AM 34.0°F1.1°C 32.2°F0.1°C 93% 3.0 mph SE4.8 kmh SE 4.0 mph6.4 kmh 29.87 in1011.5 mb 0.00 in0.0 mm 0.00 in0.0 mm 0.00 in0.0 mm
08:24 AM 34.0°F1.1°C 31.9°F-0.1°C 92% 6.0 mph E9.7 kmh E 9.0 mph14.5 kmh 29.86 in1011.2 mb 0.00 in0.0 mm 0.00 in0.0 mm 0.00 in0.0 mm
08:29 AM 34.0°F1.1°C 31.9°F-0.1°C 92% 3.0 mph SE4.8 kmh SE 6.0 mph9.7 kmh 29.86 in1011.2 mb 0.00 in0.0 mm 0.00 in0.0 mm 0.00 in0.0 mm
08:34 AM 34.0°F1.1°C 31.9°F-0.1°C 92% 4.0 mph ESE6.4 kmh ESE 6.0 mph9.7 kmh 29.86 in1011.2 mb 0.00 in0.0 mm 0.00 in0.0 mm 0.00 in0.0 mm
08:39 AM 34.0°F1.1°C 31.9°F-0.1°C 92% 5.0 mph SE8.0 kmh SE 9.0 mph14.5 kmh 29.85 in1010.8 mb 0.00 in0.0 mm 0.00 in0.0 mm 0.00 in0.0 mm
08:43 AM 34.0°F1.1°C 31.9°F-0.1°C 92% 3.0 mph SE4.8 kmh SE 4.0 mph6.4 kmh 29.85 in1010.8 mb 0.00 in0.0 mm 0.00 in0.0 mm 0.00 in0.0 mm
08:50 AM 34.0°F1.1°C 31.9°F-0.1°C 92% 5.0 mph ESE8.0 kmh ESE 7.0 mph11.3 kmh 29.85 in1010.8 mb 0.00 in0.0 mm 0.00 in0.0 mm 0.00 in0.0 mm
08:54 AM 34.0°F1.1°C 32.2°F0.1°C 93% 2.0 mph E3.2 kmh E 3.0 mph4.8 kmh 29.85 in1010.8 mb 0.00 in0.0 mm 0.00 in0.0 mm 0.00 in0.0 mm
08:59 AM 34.2°F1.2°C 32.4°F0.2°C 93% 4.0 mph SE6.4 kmh SE 7.0 mph11.3 kmh 29.85 in1010.8 mb 0.00 in0.0 mm 0.00 in0.0 mm 0.00 in0.0 mm
09:04 AM 34.2°F1.2°C 32.1°F0.1°C 92% 3.0 mph E4.8 kmh E 6.0 mph9.7 kmh 29.85 in1010.8 mb 0.00 in0.0 mm 0.00 in0.0 mm 0.00 in0.0 mm
09:09 AM 34.0°F1.1°C 31.9°F-0.1°C 92% 3.0 mph ESE4.8 kmh ESE 4.0 mph6.4 kmh 29.85 in1010.8 mb 0.00 in0.0 mm 0.00 in0.0 mm 0.00 in0.0 mm
09:14 AM 34.0°F1.1°C 31.9°F-0.1°C 92% 2.0 mph SE3.2 kmh SE 4.0 mph6.4 kmh 29.85 in1010.8 mb 0.00 in0.0 mm 0.00 in0.0 mm 0.00 in0.0 mm
09:19 AM 33.8°F1.0°C 32.0°F0.0°C 93% 3.0 mph SE4.8 kmh SE 7.0 mph11.3 kmh 29.84 in1010.5 mb 0.00 in0.0 mm 0.00 in0.0 mm 0.00 in0.0 mm
09:24 AM 33.6°F0.9°C 31.8°F-0.1°C 93% 5.0 mph SE8.0 kmh SE 8.0 mph12.9 kmh 29.84 in1010.5 mb 0.00 in0.0 mm 0.00 in0.0 mm 0.00 in0.0 mm
09:29 AM 33.6°F0.9°C 31.8°F-0.1°C 93% 4.0 mph ESE6.4 kmh ESE 7.0 mph11.3 kmh 29.84 in1010.5 mb 0.00 in0.0 mm 0.00 in0.0 mm 0.00 in0.0 mm
09:34 AM 33.6°F0.9°C 31.8°F-0.1°C 93% 3.0 mph SE4.8 kmh SE 5.0 mph8.0 kmh 29.84 in1010.5 mb 0.00 in0.0 mm 0.00 in0.0 mm 0.00 in0.0 mm
09:39 AM 33.6°F0.9°C 31.8°F-0.1°C 93% 3.0 mph ESE4.8 kmh ESE 4.0 mph6.4 kmh 29.83 in1010.2 mb 0.00 in0.0 mm 0.00 in0.0 mm 0.00 in0.0 mm
09:44 AM 33.6°F0.9°C 31.8°F-0.1°C 93% 4.0 mph SE6.4 kmh SE 7.0 mph11.3 kmh 29.84 in1010.5 mb 0.00 in0.0 mm 0.00 in0.0 mm 0.00 in0.0 mm
09:49 AM 33.6°F0.9°C 31.8°F-0.1°C 93% 3.0 mph ESE4.8 kmh ESE 6.0 mph9.7 kmh 29.84 in1010.5 mb 0.00 in0.0 mm 0.00 in0.0 mm 0.00 in0.0 mm
09:54 AM 33.6°F0.9°C 31.8°F-0.1°C 93% 5.0 mph SE8.0 kmh SE 8.0 mph12.9 kmh 29.84 in1010.5 mb 0.00 in0.0 mm 0.00 in0.0 mm 0.00 in0.0 mm
09:59 AM 33.6°F0.9°C 31.8°F-0.1°C 93% 5.0 mph SE8.0 kmh SE 7.0 mph11.3 kmh 29.84 in1010.5 mb 0.00 in0.0 mm 0.00 in0.0 mm 0.00 in0.0 mm
10:04 AM 33.6°F0.9°C 31.8°F-0.1°C 93% 3.0 mph SE4.8 kmh SE 5.0 mph8.0 kmh 29.83 in1010.2 mb 0.00 in0.0 mm 0.00 in0.0 mm 0.00 in0.0 mm
10:09 AM 33.6°F0.9°C 31.8°F-0.1°C 93% 6.0 mph SE9.7 kmh SE 8.0 mph12.9 kmh 29.84 in1010.5 mb 0.00 in0.0 mm 0.00 in0.0 mm 0.00 in0.0 mm
10:14 AM 33.6°F0.9°C 31.8°F-0.1°C 93% 4.0 mph SE6.4 kmh SE 6.0 mph9.7 kmh 29.84 in1010.5 mb 0.00 in0.0 mm 0.00 in0.0 mm 0.00 in0.0 mm
10:19 AM 33.6°F0.9°C 31.8°F-0.1°C 93% 3.0 mph ESE4.8 kmh ESE 4.0 mph6.4 kmh 29.83 in1010.2 mb 0.00 in0.0 mm 0.00 in0.0 mm 0.00 in0.0 mm
10:24 AM 33.8°F1.0°C 32.0°F0.0°C 93% 3.0 mph SE4.8 kmh SE 4.0 mph6.4 kmh 29.83 in1010.2 mb 0.00 in0.0 mm 0.00 in0.0 mm 0.00 in0.0 mm
10:29 AM 34.0°F1.1°C 32.2°F0.1°C 93% 3.0 mph ESE4.8 kmh ESE 4.0 mph6.4 kmh 29.83 in1010.2 mb 0.00 in0.0 mm 0.00 in0.0 mm 0.00 in0.0 mm
10:34 AM 34.0°F1.1°C 32.2°F0.1°C 93% 4.0 mph SE6.4 kmh SE 7.0 mph11.3 kmh 29.83 in1010.2 mb 0.00 in0.0 mm 0.00 in0.0 mm 0.00 in0.0 mm
10:39 AM 34.0°F1.1°C 32.2°F0.1°C 93% 3.0 mph SE4.8 kmh SE 4.0 mph6.4 kmh 29.83 in1010.2 mb 0.00 in0.0 mm 0.00 in0.0 mm 0.00 in0.0 mm
10:44 AM 34.2°F1.2°C 32.4°F0.2°C 93% 2.0 mph SE3.2 kmh SE 3.0 mph4.8 kmh 29.83 in1010.2 mb 0.00 in0.0 mm 0.00 in0.0 mm 0.00 in0.0 mm
10:49 AM 34.2°F1.2°C 32.6°F0.3°C 94% 2.0 mph SE3.2 kmh SE 2.0 mph3.2 kmh 29.83 in1010.2 mb 0.00 in0.0 mm 0.00 in0.0 mm 0.00 in0.0 mm
10:54 AM 34.3°F1.3°C 32.8°F0.4°C 94% 2.0 mph SE3.2 kmh SE 4.0 mph6.4 kmh 29.83 in1010.2 mb 0.00 in0.0 mm 0.00 in0.0 mm 0.00 in0.0 mm
10:59 AM 34.3°F1.3°C 32.8°F0.4°C 94% 1.0 mph E1.6 kmh E 3.0 mph4.8 kmh 29.82 in1009.8 mb 0.00 in0.0 mm 0.00 in0.0 mm 0.00 in0.0 mm
11:04 AM 34.5°F1.4°C 32.7°F0.4°C 93% 3.0 mph ESE4.8 kmh ESE 6.0 mph9.7 kmh 29.82 in1009.8 mb 0.00 in0.0 mm 0.00 in0.0 mm 0.00 in0.0 mm
11:09 AM 34.5°F1.4°C 33.0°F0.6°C 94% 2.0 mph E3.2 kmh E 4.0 mph6.4 kmh 29.82 in1009.8 mb 0.00 in0.0 mm 0.00 in0.0 mm 0.00 in0.0 mm
11:14 AM 34.9°F1.6°C 33.3°F0.7°C 94% Calm Calm 1.0 mph1.6 kmh 29.81 in1009.5 mb 0.00 in0.0 mm 0.00 in0.0 mm 0.00 in0.0 mm
11:19 AM 35.1°F1.7°C 33.2°F0.7°C 93% 2.0 mph SE3.2 kmh SE 5.0 mph8.0 kmh 29.81 in1009.5 mb 0.00 in0.0 mm 0.00 in0.0 mm 0.00 in0.0 mm
11:24 AM 35.2°F1.8°C 33.4°F0.8°C 93% 3.0 mph ESE4.8 kmh ESE 4.0 mph6.4 kmh 29.82 in1009.8 mb 0.00 in0.0 mm 0.00 in0.0 mm 0.00 in0.0 mm
11:29 AM 35.2°F1.8°C 33.4°F0.8°C 93% 4.0 mph SE6.4 kmh SE 7.0 mph11.3 kmh 29.81 in1009.5 mb 0.00 in0.0 mm 0.00 in0.0 mm 0.00 in0.0 mm
11:34 AM 35.4°F1.9°C 33.6°F0.9°C 93% 6.0 mph SE9.7 kmh SE 8.0 mph12.9 kmh 29.82 in1009.8 mb 0.00 in0.0 mm 0.00 in0.0 mm 0.00 in0.0 mm
11:39 AM 35.6°F2.0°C 33.8°F1.0°C 93% 3.0 mph ESE4.8 kmh ESE 4.0 mph6.4 kmh 29.82 in1009.8 mb 0.00 in0.0 mm 0.00 in0.0 mm 0.00 in0.0 mm
11:44 AM 35.8°F2.1°C 34.0°F1.1°C 93% 6.0 mph ESE9.7 kmh ESE 9.0 mph14.5 kmh 29.81 in1009.5 mb 0.00 in0.0 mm 0.00 in0.0 mm 0.00 in0.0 mm
11:49 AM 36.1°F2.3°C 34.3°F1.3°C 93% 6.0 mph ESE9.7 kmh ESE 8.0 mph12.9 kmh 29.80 in1009.1 mb 0.00 in0.0 mm 0.00 in0.0 mm 0.00 in0.0 mm
11:54 AM 36.3°F2.4°C 34.2°F1.2°C 92% 4.0 mph SE6.4 kmh SE 5.0 mph8.0 kmh 29.80 in1009.1 mb 0.00 in0.0 mm 0.00 in0.0 mm 0.00 in0.0 mm
11:59 AM 36.7°F2.6°C 34.6°F1.4°C 92% 3.0 mph ESE4.8 kmh ESE 4.0 mph6.4 kmh 29.80 in1009.1 mb 0.00 in0.0 mm 0.00 in0.0 mm 0.00 in0.0 mm
12:04 PM 36.9°F2.7°C 34.8°F1.6°C 92% 5.0 mph ESE8.0 kmh ESE 7.0 mph11.3 kmh 29.80 in1009.1 mb 0.00 in0.0 mm 0.00 in0.0 mm 0.00 in0.0 mm
12:09 PM 37.0°F2.8°C 34.9°F1.6°C 92% 7.0 mph SE11.3 kmh SE 10.0 mph16.1 kmh 29.80 in1009.1 mb 0.00 in0.0 mm 0.00 in0.0 mm 0.00 in0.0 mm
12:14 PM 37.2°F2.9°C 35.1°F1.7°C 92% 6.0 mph ESE9.7 kmh ESE 9.0 mph14.5 kmh 29.80 in1009.1 mb 0.00 in0.0 mm 0.00 in0.0 mm 0.00 in0.0 mm
12:19 PM 37.0°F2.8°C 34.7°F1.5°C 91% 6.0 mph ESE9.7 kmh ESE 9.0 mph14.5 kmh 29.80 in1009.1 mb 0.00 in0.0 mm 0.00 in0.0 mm 0.00 in0.0 mm
12:24 PM 37.2°F2.9°C 34.8°F1.6°C 91% 5.0 mph ESE8.0 kmh ESE 8.0 mph12.9 kmh 29.80 in1009.1 mb 0.00 in0.0 mm 0.00 in0.0 mm 0.00 in0.0 mm
12:29 PM 37.2°F2.9°C 34.8°F1.6°C 91% 5.0 mph ESE8.0 kmh ESE 7.0 mph11.3 kmh 29.80 in1009.1 mb 0.00 in0.0 mm 0.00 in0.0 mm 0.00 in0.0 mm
12:34 PM 37.2°F2.9°C 34.8°F1.6°C 91% 3.0 mph SE4.8 kmh SE 4.0 mph6.4 kmh 29.80 in1009.1 mb 0.00 in0.0 mm 0.00 in0.0 mm 0.00 in0.0 mm
12:39 PM 37.2°F2.9°C 34.8°F1.6°C 91% 4.0 mph ESE6.4 kmh ESE 7.0 mph11.3 kmh 29.79 in1008.8 mb 0.00 in0.0 mm 0.00 in0.0 mm 0.00 in0.0 mm
12:44 PM 37.0°F2.8°C 34.7°F1.5°C 91% 4.0 mph SE6.4 kmh SE 5.0 mph8.0 kmh 29.79 in1008.8 mb 0.00 in0.0 mm 0.00 in0.0 mm 0.00 in0.0 mm
12:49 PM 37.0°F2.8°C 34.7°F1.5°C 91% 3.0 mph ESE4.8 kmh ESE 6.0 mph9.7 kmh 29.79 in1008.8 mb 0.00 in0.0 mm 0.00 in0.0 mm 0.00 in0.0 mm
12:54 PM 37.2°F2.9°C 34.8°F1.6°C 91% 2.0 mph ESE3.2 kmh ESE 3.0 mph4.8 kmh 29.79 in1008.8 mb 0.00 in0.0 mm 0.00 in0.0 mm 0.00 in0.0 mm
12:59 PM 37.2°F2.9°C 35.1°F1.7°C 92% 3.0 mph ESE4.8 kmh ESE 4.0 mph6.4 kmh 29.79 in1008.8 mb 0.00 in0.0 mm 0.00 in0.0 mm 0.00 in0.0 mm
01:04 PM 37.4°F3.0°C 35.3°F1.8°C 92% 2.0 mph SE3.2 kmh SE 4.0 mph6.4 kmh 29.79 in1008.8 mb 0.00 in0.0 mm 0.00 in0.0 mm 0.00 in0.0 mm
01:09 PM 37.6°F3.1°C 35.5°F1.9°C 92% 1.0 mph ESE1.6 kmh ESE 3.0 mph4.8 kmh 29.78 in1008.5 mb 0.00 in0.0 mm 0.00 in0.0 mm 0.00 in0.0 mm
01:14 PM 37.8°F3.2°C 35.4°F1.9°C 91% 3.0 mph ESE4.8 kmh ESE 4.0 mph6.4 kmh 29.78 in1008.5 mb 0.00 in0.0 mm 0.00 in0.0 mm 0.00 in0.0 mm
01:19 PM 37.9°F3.3°C 35.8°F2.1°C 92% 4.0 mph ESE6.4 kmh ESE 7.0 mph11.3 kmh 29.78 in1008.5 mb 0.00 in0.0 mm 0.00 in0.0 mm 0.00 in0.0 mm
01:24 PM 38.1°F3.4°C 36.0°F2.2°C 92% 4.0 mph ESE6.4 kmh ESE 7.0 mph11.3 kmh 29.78 in1008.5 mb 0.00 in0.0 mm 0.00 in0.0 mm 0.00 in0.0 mm
01:29 PM 38.5°F3.6°C 36.1°F2.3°C 91% 3.0 mph ESE4.8 kmh ESE 4.0 mph6.4 kmh 29.78 in1008.5 mb 0.00 in0.0 mm 0.00 in0.0 mm 0.00 in0.0 mm
01:34 PM 38.7°F3.7°C 36.3°F2.4°C 91% 3.0 mph ESE4.8 kmh ESE 5.0 mph8.0 kmh 29.78 in1008.5 mb 0.00 in0.0 mm 0.00 in0.0 mm 0.00 in0.0 mm
01:39 PM 38.8°F3.8°C 36.4°F2.4°C 91% 3.0 mph SE4.8 kmh SE 6.0 mph9.7 kmh 29.78 in1008.5 mb 0.00 in0.0 mm 0.00 in0.0 mm 0.00 in0.0 mm
01:44 PM 39.0°F3.9°C 36.6°F2.6°C 91% 3.0 mph ESE4.8 kmh ESE 4.0 mph6.4 kmh 29.77 in1008.1 mb 0.00 in0.0 mm 0.00 in0.0 mm 0.00 in0.0 mm
01:49 PM 39.0°F3.9°C 36.6°F2.6°C 91% 3.0 mph SE4.8 kmh SE 4.0 mph6.4 kmh 29.77 in1008.1 mb 0.00 in0.0 mm 0.00 in0.0 mm 0.00 in0.0 mm
01:54 PM 39.0°F3.9°C 36.3°F2.4°C 90% 3.0 mph ESE4.8 kmh ESE 4.0 mph6.4 kmh 29.77 in1008.1 mb 0.00 in0.0 mm 0.00 in0.0 mm 0.00 in0.0 mm
01:59 PM 39.0°F3.9°C 36.3°F2.4°C 90% 5.0 mph ESE8.0 kmh ESE 7.0 mph11.3 kmh 29.77 in1008.1 mb 0.00 in0.0 mm 0.00 in0.0 mm 0.00 in0.0 mm
02:04 PM 39.2°F4.0°C 36.5°F2.5°C 90% 4.0 mph ESE6.4 kmh ESE 6.0 mph9.7 kmh 29.77 in1008.1 mb 0.00 in0.0 mm 0.00 in0.0 mm 0.00 in0.0 mm
02:09 PM 39.4°F4.1°C 36.7°F2.6°C 90% 3.0 mph ESE4.8 kmh ESE 5.0 mph8.0 kmh 29.77 in1008.1 mb 0.00 in0.0 mm 0.00 in0.0 mm 0.00 in0.0 mm
02:14 PM 39.2°F4.0°C 36.5°F2.5°C 90% 3.0 mph SE4.8 kmh SE 5.0 mph8.0 kmh 29.77 in1008.1 mb 0.00 in0.0 mm 0.00 in0.0 mm 0.00 in0.0 mm
02:19 PM 39.2°F4.0°C 36.5°F2.5°C 90% 3.0 mph SE4.8 kmh SE 4.0 mph6.4 kmh 29.77 in1008.1 mb 0.00 in0.0 mm 0.00 in0.0 mm 0.00 in0.0 mm
02:24 PM 39.2°F4.0°C 36.5°F2.5°C 90% 4.0 mph SE6.4 kmh SE 4.0 mph6.4 kmh 29.77 in1008.1 mb 0.00 in0.0 mm 0.00 in0.0 mm 0.00 in0.0 mm
02:29 PM 39.4°F4.1°C 36.7°F2.6°C 90% 2.0 mph SE3.2 kmh SE 3.0 mph4.8 kmh 29.76 in1007.8 mb 0.00 in0.0 mm 0.00 in0.0 mm 0.00 in0.0 mm
02:34 PM 39.6°F4.2°C 36.9°F2.7°C 90% 3.0 mph ESE4.8 kmh ESE 4.0 mph6.4 kmh 29.76 in1007.8 mb 0.00 in0.0 mm 0.00 in0.0 mm 0.00 in0.0 mm
02:39 PM 39.6°F4.2°C 36.9°F2.7°C 90% 2.0 mph ESE3.2 kmh ESE 4.0 mph6.4 kmh 29.75 in1007.5 mb 0.00 in0.0 mm 0.00 in0.0 mm 0.00 in0.0 mm
02:44 PM 39.7°F4.3°C 37.1°F2.8°C 90% 4.0 mph SE6.4 kmh SE 5.0 mph8.0 kmh 29.75 in1007.5 mb 0.00 in0.0 mm 0.00 in0.0 mm 0.00 in0.0 mm
02:49 PM 39.9°F4.4°C 37.2°F2.9°C 90% 4.0 mph SE6.4 kmh SE 6.0 mph9.7 kmh 29.75 in1007.5 mb 0.00 in0.0 mm 0.00 in0.0 mm 0.00 in0.0 mm
02:54 PM 40.1°F4.5°C 37.4°F3.0°C 90% 4.0 mph ESE6.4 kmh ESE 6.0 mph9.7 kmh 29.75 in1007.5 mb 0.00 in0.0 mm 0.00 in0.0 mm 0.00 in0.0 mm
02:59 PM 40.1°F4.5°C 37.4°F3.0°C 90% 3.0 mph SE4.8 kmh SE 4.0 mph6.4 kmh 29.75 in1007.5 mb 0.00 in0.0 mm 0.00 in0.0 mm 0.00 in0.0 mm
03:04 PM 40.3°F4.6°C 37.6°F3.1°C 90% 2.0 mph ESE3.2 kmh ESE 3.0 mph4.8 kmh 29.75 in1007.5 mb 0.00 in0.0 mm 0.00 in0.0 mm 0.00 in0.0 mm
03:09 PM 40.3°F4.6°C 37.6°F3.1°C 90% 1.0 mph ESE1.6 kmh ESE 2.0 mph3.2 kmh 29.75 in1007.5 mb 0.00 in0.0 mm 0.00 in0.0 mm 0.00 in0.0 mm
03:14 PM 40.5°F4.7°C 37.8°F3.2°C 90% 1.0 mph SE1.6 kmh SE 2.0 mph3.2 kmh 29.76 in1007.8 mb 0.00 in0.0 mm 0.00 in0.0 mm 0.00 in0.0 mm
03:19 PM 40.3°F4.6°C 37.3°F2.9°C 89% 2.0 mph ESE3.2 kmh ESE 4.0 mph6.4 kmh 29.75 in1007.5 mb 0.00 in0.0 mm 0.00 in0.0 mm 0.00 in0.0 mm
03:24 PM 40.5°F4.7°C 37.8°F3.2°C 90% 3.0 mph SE4.8 kmh SE 4.0 mph6.4 kmh 29.75 in1007.5 mb 0.00 in0.0 mm 0.00 in0.0 mm 0.00 in0.0 mm
03:29 PM 40.5°F4.7°C 37.8°F3.2°C 90% 2.0 mph ESE3.2 kmh ESE 4.0 mph6.4 kmh 29.75 in1007.5 mb 0.00 in0.0 mm 0.00 in0.0 mm 0.00 in0.0 mm
03:34 PM 40.6°F4.8°C 37.9°F3.3°C 90% 3.0 mph ESE4.8 kmh ESE 4.0 mph6.4 kmh 29.75 in1007.5 mb 0.00 in0.0 mm 0.00 in0.0 mm 0.00 in0.0 mm
03:39 PM 40.8°F4.9°C 38.1°F3.4°C 90% 3.0 mph SSE4.8 kmh SSE 4.0 mph6.4 kmh 29.75 in1007.5 mb 0.00 in0.0 mm 0.00 in0.0 mm 0.00 in0.0 mm
03:44 PM 41.4°F5.2°C 38.7°F3.7°C 90% 4.0 mph SSE6.4 kmh SSE 7.0 mph11.3 kmh 29.75 in1007.5 mb 0.00 in0.0 mm 0.00 in0.0 mm 0.00 in0.0 mm
03:49 PM 41.4°F5.2°C 38.4°F3.6°C 89% 4.0 mph ESE6.4 kmh ESE 7.0 mph11.3 kmh 29.75 in1007.5 mb 0.00 in0.0 mm 0.00 in0.0 mm 0.00 in0.0 mm
03:54 PM 41.4°F5.2°C 38.4°F3.6°C 89% 5.0 mph SE8.0 kmh SE 9.0 mph14.5 kmh 29.75 in1007.5 mb 0.00 in0.0 mm 0.00 in0.0 mm 0.00 in0.0 mm
03:59 PM 41.7°F5.4°C 38.7°F3.7°C 89% 3.0 mph ESE4.8 kmh ESE 4.0 mph6.4 kmh 29.75 in1007.5 mb 0.00 in0.0 mm 0.00 in0.0 mm 0.00 in0.0 mm
04:04 PM 41.5°F5.3°C 38.5°F3.6°C 89% 5.0 mph SE8.0 kmh SE 8.0 mph12.9 kmh 29.75 in1007.5 mb 0.00 in0.0 mm 0.00 in0.0 mm 0.00 in0.0 mm
04:09 PM 41.5°F5.3°C 38.5°F3.6°C 89% 4.0 mph SE6.4 kmh SE 5.0 mph8.0 kmh 29.75 in1007.5 mb 0.00 in0.0 mm 0.00 in0.0 mm 0.00 in0.0 mm
04:14 PM 41.7°F5.4°C 38.7°F3.7°C 89% 7.0 mph SE11.3 kmh SE 9.0 mph14.5 kmh 29.75 in1007.5 mb 0.00 in0.0 mm 0.00 in0.0 mm 0.00 in0.0 mm
04:19 PM 41.5°F5.3°C 38.5°F3.6°C 89% 2.0 mph ESE3.2 kmh ESE 5.0 mph8.0 kmh 29.75 in1007.5 mb 0.00 in0.0 mm 0.00 in0.0 mm 0.00 in0.0 mm
04:24 PM 41.7°F5.4°C 38.7°F3.7°C 89% 5.0 mph SE8.0 kmh SE 8.0 mph12.9 kmh 29.75 in1007.5 mb 0.00 in0.0 mm 0.00 in0.0 mm 0.00 in0.0 mm
04:29 PM 41.7°F5.4°C 38.7°F3.7°C 89% 5.0 mph SE8.0 kmh SE 8.0 mph12.9 kmh 29.75 in1007.5 mb 0.00 in0.0 mm 0.00 in0.0 mm 0.00 in0.0 mm
04:34 PM 41.7°F5.4°C 38.7°F3.7°C 89% 4.0 mph SE6.4 kmh SE 7.0 mph11.3 kmh 29.75 in1007.5 mb 0.00 in0.0 mm 0.00 in0.0 mm 0.00 in0.0 mm
04:39 PM 41.7°F5.4°C 38.7°F3.7°C 89% 6.0 mph SE9.7 kmh SE 10.0 mph16.1 kmh 29.75 in1007.5 mb 0.00 in0.0 mm 0.00 in0.0 mm 0.00 in0.0 mm
04:44 PM 41.9°F5.5°C 38.9°F3.8°C 89% 4.0 mph SSE6.4 kmh SSE 5.0 mph8.0 kmh 29.75 in1007.5 mb 0.00 in0.0 mm 0.00 in0.0 mm 0.00 in0.0 mm
04:49 PM 41.7°F5.4°C 38.7°F3.7°C 89% 6.0 mph SE9.7 kmh SE 9.0 mph14.5 kmh 29.75 in1007.5 mb 0.00 in0.0 mm 0.00 in0.0 mm 0.00 in0.0 mm
04:54 PM 41.9°F5.5°C 38.9°F3.8°C 89% 7.0 mph SSE11.3 kmh SSE 11.0 mph17.7 kmh 29.75 in1007.5 mb 0.00 in0.0 mm 0.00 in0.0 mm 0.00 in0.0 mm
04:59 PM 41.7°F5.4°C 39.0°F3.9°C 90% 4.0 mph SE6.4 kmh SE 7.0 mph11.3 kmh 29.76 in1007.8 mb 0.00 in0.0 mm 0.00 in0.0 mm 0.00 in0.0 mm
05:04 PM 41.7°F5.4°C 39.0°F3.9°C 90% 4.0 mph SE6.4 kmh SE 6.0 mph9.7 kmh 29.76 in1007.8 mb 0.00 in0.0 mm 0.00 in0.0 mm 0.00 in0.0 mm
05:09 PM 41.5°F5.3°C 38.8°F3.8°C 90% 5.0 mph SSE8.0 kmh SSE 8.0 mph12.9 kmh 29.76 in1007.8 mb 0.00 in0.0 mm 0.00 in0.0 mm 0.00 in0.0 mm
05:14 PM 41.5°F5.3°C 38.8°F3.8°C 90% 4.0 mph SSE6.4 kmh SSE 5.0 mph8.0 kmh 29.76 in1007.8 mb 0.00 in0.0 mm 0.00 in0.0 mm 0.00 in0.0 mm
05:19 PM 41.5°F5.3°C 39.1°F3.9°C 91% 4.0 mph SSE6.4 kmh SSE 6.0 mph9.7 kmh 29.76 in1007.8 mb 0.00 in0.0 mm 0.00 in0.0 mm 0.00 in0.0 mm
05:24 PM 41.5°F5.3°C 39.1°F3.9°C 91% 8.0 mph S12.9 kmh S 11.0 mph17.7 kmh 29.76 in1007.8 mb 0.00 in0.0 mm 0.00 in0.0 mm 0.00 in0.0 mm
05:29 PM 41.5°F5.3°C 39.1°F3.9°C 91% 4.0 mph SSE6.4 kmh SSE 8.0 mph12.9 kmh 29.75 in1007.5 mb 0.00 in0.0 mm 0.00 in0.0 mm 0.00 in0.0 mm
05:34 PM 41.5°F5.3°C 39.4°F4.1°C 92% 4.0 mph SSE6.4 kmh SSE 6.0 mph9.7 kmh 29.75 in1007.5 mb 0.00 in0.0 mm 0.00 in0.0 mm 0.00 in0.0 mm
05:39 PM 41.5°F5.3°C 39.4°F4.1°C 92% 5.0 mph SSE8.0 kmh SSE 8.0 mph12.9 kmh 29.76 in1007.8 mb 0.00 in0.0 mm 0.00 in0.0 mm 0.00 in0.0 mm
05:44 PM 41.5°F5.3°C 39.4°F4.1°C 92% 6.0 mph SE9.7 kmh SE 9.0 mph14.5 kmh 29.76 in1007.8 mb 0.00 in0.0 mm 0.00 in0.0 mm 0.00 in0.0 mm
05:49 PM 41.5°F5.3°C 39.4°F4.1°C 92% 4.0 mph SSE6.4 kmh SSE 6.0 mph9.7 kmh 29.76 in1007.8 mb 0.00 in0.0 mm 0.00 in0.0 mm 0.00 in0.0 mm
05:54 PM 41.5°F5.3°C 39.4°F4.1°C 92% 5.0 mph SSE8.0 kmh SSE 7.0 mph11.3 kmh 29.76 in1007.8 mb 0.00 in0.0 mm 0.00 in0.0 mm 0.00 in0.0 mm
05:59 PM 41.5°F5.3°C 39.4°F4.1°C 92% 4.0 mph SE6.4 kmh SE 7.0 mph11.3 kmh 29.76 in1007.8 mb 0.00 in0.0 mm 0.00 in0.0 mm 0.00 in0.0 mm
06:04 PM 41.5°F5.3°C 39.4°F4.1°C 92% 4.0 mph S6.4 kmh S 6.0 mph9.7 kmh 29.75 in1007.5 mb 0.00 in0.0 mm 0.00 in0.0 mm 0.00 in0.0 mm
06:09 PM 41.5°F5.3°C 39.4°F4.1°C 92% 4.0 mph SSE6.4 kmh SSE 10.0 mph16.1 kmh 29.75 in1007.5 mb 0.00 in0.0 mm 0.00 in0.0 mm 0.00 in0.0 mm
06:14 PM 41.5°F5.3°C 39.4°F4.1°C 92% 6.0 mph SSE9.7 kmh SSE 10.0 mph16.1 kmh 29.75 in1007.5 mb 0.00 in0.0 mm 0.00 in0.0 mm 0.00 in0.0 mm
06:19 PM 41.5°F5.3°C 39.4°F4.1°C 92% 4.0 mph SSE6.4 kmh SSE 6.0 mph9.7 kmh 29.75 in1007.5 mb 0.00 in0.0 mm 0.00 in0.0 mm 0.00 in0.0 mm
06:24 PM 41.4°F5.2°C 39.5°F4.2°C 93% 5.0 mph SE8.0 kmh SE 10.0 mph16.1 kmh 29.75 in1007.5 mb 0.00 in0.0 mm 0.00 in0.0 mm 0.00 in0.0 mm
06:29 PM 41.4°F5.2°C 39.5°F4.2°C 93% 5.0 mph SE8.0 kmh SE 9.0 mph14.5 kmh 29.75 in1007.5 mb 0.00 in0.0 mm 0.00 in0.0 mm 0.00 in0.0 mm
06:34 PM 41.4°F5.2°C 39.8°F4.3°C 94% 4.0 mph S6.4 kmh S 6.0 mph9.7 kmh 29.75 in1007.5 mb 0.00 in0.0 mm 0.00 in0.0 mm 0.00 in0.0 mm
06:39 PM 41.4°F5.2°C 39.8°F4.3°C 94% 4.0 mph S6.4 kmh S 7.0 mph11.3 kmh 29.75 in1007.5 mb 0.00 in0.0 mm 0.00 in0.0 mm 0.00 in0.0 mm
06:44 PM 41.2°F5.1°C 39.6°F4.2°C 94% 4.0 mph S6.4 kmh S 7.0 mph11.3 kmh 29.75 in1007.5 mb 0.00 in0.0 mm 0.00 in0.0 mm 0.00 in0.0 mm
06:49 PM 41.2°F5.1°C 39.6°F4.2°C 94% 4.0 mph SSE6.4 kmh SSE 6.0 mph9.7 kmh 29.76 in1007.8 mb 0.00 in0.0 mm 0.00 in0.0 mm 0.00 in0.0 mm
06:54 PM 41.2°F5.1°C 39.6°F4.2°C 94% 3.0 mph SSE4.8 kmh SSE 5.0 mph8.0 kmh 29.76 in1007.8 mb 0.00 in0.0 mm 0.00 in0.0 mm 0.00 in0.0 mm
06:59 PM 41.2°F5.1°C 39.6°F4.2°C 94% 3.0 mph SSE4.8 kmh SSE 4.0 mph6.4 kmh 29.76 in1007.8 mb 0.00 in0.0 mm 0.00 in0.0 mm 0.00 in0.0 mm
07:04 PM 41.2°F5.1°C 39.6°F4.2°C 94% 4.0 mph SE6.4 kmh SE 6.0 mph9.7 kmh 29.75 in1007.5 mb 0.00 in0.0 mm 0.00 in0.0 mm 0.00 in0.0 mm
07:09 PM 41.4°F5.2°C 39.8°F4.3°C 94% 4.0 mph S6.4 kmh S 7.0 mph11.3 kmh 29.76 in1007.8 mb 0.00 in0.0 mm 0.00 in0.0 mm 0.00 in0.0 mm
07:14 PM 41.4°F5.2°C 39.8°F4.3°C 94% 3.0 mph SSE4.8 kmh SSE 6.0 mph9.7 kmh 29.76 in1007.8 mb 0.00 in0.0 mm 0.00 in0.0 mm 0.00 in0.0 mm
07:19 PM 41.2°F5.1°C 39.6°F4.2°C 94% 5.0 mph S8.0 kmh S 6.0 mph9.7 kmh 29.76 in1007.8 mb 0.00 in0.0 mm 0.00 in0.0 mm 0.00 in0.0 mm
07:24 PM 41.4°F5.2°C 39.8°F4.3°C 94% 4.0 mph SE6.4 kmh SE 7.0 mph11.3 kmh 29.76 in1007.8 mb 0.00 in0.0 mm 0.00 in0.0 mm 0.00 in0.0 mm
07:29 PM 41.4°F5.2°C 39.8°F4.3°C 94% 4.0 mph SSE6.4 kmh SSE 5.0 mph8.0 kmh 29.76 in1007.8 mb 0.00 in0.0 mm 0.00 in0.0 mm 0.00 in0.0 mm
07:34 PM 41.4°F5.2°C 39.8°F4.3°C 94% 4.0 mph SE6.4 kmh SE 7.0 mph11.3 kmh 29.76 in1007.8 mb 0.00 in0.0 mm 0.00 in0.0 mm 0.00 in0.0 mm
07:39 PM 41.5°F5.3°C 39.9°F4.4°C 94% 3.0 mph SE4.8 kmh SE 5.0 mph8.0 kmh 29.76 in1007.8 mb 0.00 in0.0 mm 0.00 in0.0 mm 0.00 in0.0 mm
07:44 PM 41.5°F5.3°C 39.9°F4.4°C 94% 2.0 mph S3.2 kmh S 5.0 mph8.0 kmh 29.76 in1007.8 mb 0.00 in0.0 mm 0.00 in0.0 mm 0.00 in0.0 mm
07:49 PM 41.5°F5.3°C 39.9°F4.4°C 94% 4.0 mph SSE6.4 kmh SSE 7.0 mph11.3 kmh 29.76 in1007.8 mb 0.00 in0.0 mm 0.00 in0.0 mm 0.00 in0.0 mm
07:54 PM 41.5°F5.3°C 39.9°F4.4°C 94% 4.0 mph SE6.4 kmh SE 5.0 mph8.0 kmh 29.76 in1007.8 mb 0.00 in0.0 mm 0.00 in0.0 mm 0.00 in0.0 mm
07:59 PM 41.5°F5.3°C 39.9°F4.4°C 94% 3.0 mph SSE4.8 kmh SSE 8.0 mph12.9 kmh 29.76 in1007.8 mb 0.00 in0.0 mm 0.00 in0.0 mm 0.00 in0.0 mm
08:04 PM 41.7°F5.4°C 40.1°F4.5°C 94% 3.0 mph S4.8 kmh S 5.0 mph8.0 kmh 29.76 in1007.8 mb 0.00 in0.0 mm 0.00 in0.0 mm 0.00 in0.0 mm
08:09 PM 41.7°F5.4°C 40.1°F4.5°C 94% 3.0 mph S4.8 kmh S 5.0 mph8.0 kmh 29.76 in1007.8 mb 0.00 in0.0 mm 0.00 in0.0 mm 0.00 in0.0 mm
08:14 PM 41.7°F5.4°C 40.1°F4.5°C 94% 3.0 mph SSE4.8 kmh SSE 5.0 mph8.0 kmh 29.76 in1007.8 mb 0.00 in0.0 mm 0.00 in0.0 mm 0.00 in0.0 mm
08:19 PM 41.7°F5.4°C 39.8°F4.3°C 93% 4.0 mph S6.4 kmh S 6.0 mph9.7 kmh 29.76 in1007.8 mb 0.00 in0.0 mm 0.00 in0.0 mm 0.00 in0.0 mm
08:24 PM 41.5°F5.3°C 39.9°F4.4°C 94% 3.0 mph SSE4.8 kmh SSE 4.0 mph6.4 kmh 29.76 in1007.8 mb 0.00 in0.0 mm 0.00 in0.0 mm 0.00 in0.0 mm
08:29 PM 41.5°F5.3°C 39.9°F4.4°C 94% 3.0 mph SE4.8 kmh SE 5.0 mph8.0 kmh 29.76 in1007.8 mb 0.00 in0.0 mm 0.00 in0.0 mm 0.00 in0.0 mm
08:34 PM 41.5°F5.3°C 39.9°F4.4°C 94% 4.0 mph SSE6.4 kmh SSE 6.0 mph9.7 kmh 29.76 in1007.8 mb 0.00 in0.0 mm 0.00 in0.0 mm 0.00 in0.0 mm
08:39 PM 41.5°F5.3°C 39.9°F4.4°C 94% 4.0 mph SE6.4 kmh SE 6.0 mph9.7 kmh 29.76 in1007.8 mb 0.00 in0.0 mm 0.00 in0.0 mm 0.00 in0.0 mm
08:43 PM 41.5°F5.3°C 39.9°F4.4°C 94% 5.0 mph SSE8.0 kmh SSE 7.0 mph11.3 kmh 29.76 in1007.8 mb 0.00 in0.0 mm 0.00 in0.0 mm 0.00 in0.0 mm
08:49 PM 41.7°F5.4°C 40.1°F4.5°C 94% 3.0 mph SSE4.8 kmh SSE 6.0 mph9.7 kmh 29.76 in1007.8 mb 0.00 in0.0 mm 0.00 in0.0 mm 0.00 in0.0 mm
08:54 PM 41.7°F5.4°C 40.1°F4.5°C 94% 4.0 mph SSE6.4 kmh SSE 5.0 mph8.0 kmh 29.76 in1007.8 mb 0.00 in0.0 mm 0.00 in0.0 mm 0.00 in0.0 mm
08:59 PM 41.7°F5.4°C 39.8°F4.3°C 93% 5.0 mph SE8.0 kmh SE 7.0 mph11.3 kmh 29.76 in1007.8 mb 0.00 in0.0 mm 0.00 in0.0 mm 0.00 in0.0 mm
09:04 PM 41.9°F5.5°C 40.0°F4.4°C 93% 4.0 mph SSW6.4 kmh SSW 9.0 mph14.5 kmh 29.76 in1007.8 mb 0.00 in0.0 mm 0.00 in0.0 mm 0.00 in0.0 mm
09:09 PM 41.9°F5.5°C 40.0°F4.4°C 93% 5.0 mph SE8.0 kmh SE 11.0 mph17.7 kmh 29.76 in1007.8 mb 0.00 in0.0 mm 0.00 in0.0 mm 0.00 in0.0 mm
09:14 PM 42.1°F5.6°C 40.2°F4.6°C 93% 5.0 mph S8.0 kmh S 7.0 mph11.3 kmh 29.76 in1007.8 mb 0.00 in0.0 mm 0.00 in0.0 mm 0.00 in0.0 mm
09:19 PM 42.1°F5.6°C 40.2°F4.6°C 93% 5.0 mph SSE8.0 kmh SSE 8.0 mph12.9 kmh 29.76 in1007.8 mb 0.00 in0.0 mm 0.00 in0.0 mm 0.00 in0.0 mm
09:24 PM 42.1°F5.6°C 40.2°F4.6°C 93% 4.0 mph SSE6.4 kmh SSE 7.0 mph11.3 kmh 29.76 in1007.8 mb 0.00 in0.0 mm 0.00 in0.0 mm 0.00 in0.0 mm
09:29 PM 42.1°F5.6°C 40.2°F4.6°C 93% 3.0 mph S4.8 kmh S 4.0 mph6.4 kmh 29.77 in1008.1 mb 0.00 in0.0 mm 0.00 in0.0 mm 0.00 in0.0 mm
09:34 PM 42.1°F5.6°C 40.2°F4.6°C 93% 7.0 mph SSW11.3 kmh SSW 9.0 mph14.5 kmh 29.77 in1008.1 mb 0.00 in0.0 mm 0.00 in0.0 mm 0.00 in0.0 mm
09:39 PM 41.9°F5.5°C 40.0°F4.4°C 93% 4.0 mph S6.4 kmh S 5.0 mph8.0 kmh 29.77 in1008.1 mb 0.00 in0.0 mm 0.00 in0.0 mm 0.00 in0.0 mm
09:44 PM 41.9°F5.5°C 40.3°F4.6°C 94% 4.0 mph S6.4 kmh S 7.0 mph11.3 kmh 29.77 in1008.1 mb 0.00 in0.0 mm 0.00 in0.0 mm 0.00 in0.0 mm
09:49 PM 41.7°F5.4°C 40.1°F4.5°C 94% 3.0 mph S4.8 kmh S 6.0 mph9.7 kmh 29.77 in1008.1 mb 0.00 in0.0 mm 0.00 in0.0 mm 0.00 in0.0 mm
09:54 PM 41.7°F5.4°C 40.1°F4.5°C 94% 3.0 mph SE4.8 kmh SE 6.0 mph9.7 kmh 29.77 in1008.1 mb 0.00 in0.0 mm 0.00 in0.0 mm 0.00 in0.0 mm
09:59 PM 41.7°F5.4°C 40.1°F4.5°C 94% 6.0 mph S9.7 kmh S 10.0 mph16.1 kmh 29.77 in1008.1 mb 0.00 in0.0 mm 0.00 in0.0 mm 0.00 in0.0 mm
10:04 PM 41.7°F5.4°C 40.1°F4.5°C 94% 6.0 mph S9.7 kmh S 10.0 mph16.1 kmh 29.77 in1008.1 mb 0.00 in0.0 mm 0.00 in0.0 mm 0.00 in0.0 mm
10:09 PM 41.7°F5.4°C 40.1°F4.5°C 94% 6.0 mph SSW9.7 kmh SSW 9.0 mph14.5 kmh 29.76 in1007.8 mb 0.00 in0.0 mm 0.00 in0.0 mm 0.00 in0.0 mm
10:14 PM 41.7°F5.4°C 40.1°F4.5°C 94% 6.0 mph SSW9.7 kmh SSW 9.0 mph14.5 kmh 29.77 in1008.1 mb 0.00 in0.0 mm 0.00 in0.0 mm 0.00 in0.0 mm
10:19 PM 41.7°F5.4°C 40.1°F4.5°C 94% 4.0 mph SSE6.4 kmh SSE 7.0 mph11.3 kmh 29.77 in1008.1 mb 0.00 in0.0 mm 0.00 in0.0 mm 0.00 in0.0 mm
10:24 PM 41.7°F5.4°C 40.1°F4.5°C 94% 7.0 mph SE11.3 kmh SE 9.0 mph14.5 kmh 29.77 in1008.1 mb 0.00 in0.0 mm 0.00 in0.0 mm 0.00 in0.0 mm
10:29 PM 41.7°F5.4°C 40.1°F4.5°C 94% 5.0 mph SSE8.0 kmh SSE 8.0 mph12.9 kmh 29.77 in1008.1 mb 0.00 in0.0 mm 0.00 in0.0 mm 0.00 in0.0 mm
10:34 PM 41.7°F5.4°C 40.1°F4.5°C 94% 4.0 mph SSE6.4 kmh SSE 7.0 mph11.3 kmh 29.77 in1008.1 mb 0.00 in0.0 mm 0.00 in0.0 mm 0.00 in0.0 mm
10:39 PM 41.7°F5.4°C 40.1°F4.5°C 94% 3.0 mph SE4.8 kmh SE 7.0 mph11.3 kmh 29.77 in1008.1 mb 0.00 in0.0 mm 0.00 in0.0 mm 0.00 in0.0 mm
10:44 PM 41.7°F5.4°C 40.1°F4.5°C 94% 2.0 mph S3.2 kmh S 4.0 mph6.4 kmh 29.77 in1008.1 mb 0.00 in0.0 mm 0.00 in0.0 mm 0.00 in0.0 mm
10:49 PM 41.7°F5.4°C 40.1°F4.5°C 94% 3.0 mph S4.8 kmh S 6.0 mph9.7 kmh 29.77 in1008.1 mb 0.00 in0.0 mm 0.00 in0.0 mm 0.00 in0.0 mm
10:54 PM 41.5°F5.3°C 40.2°F4.6°C 95% 5.0 mph SSE8.0 kmh SSE 7.0 mph11.3 kmh 29.77 in1008.1 mb 0.00 in0.0 mm 0.00 in0.0 mm 0.00 in0.0 mm
10:59 PM 41.5°F5.3°C 40.2°F4.6°C 95% 2.0 mph SSE3.2 kmh SSE 4.0 mph6.4 kmh 29.77 in1008.1 mb 0.00 in0.0 mm 0.00 in0.0 mm 0.00 in0.0 mm
11:04 PM 41.5°F5.3°C 40.2°F4.6°C 95% 3.0 mph SE4.8 kmh SE 5.0 mph8.0 kmh 29.77 in1008.1 mb 0.00 in0.0 mm 0.00 in0.0 mm 0.00 in0.0 mm
11:09 PM 41.5°F5.3°C 40.2°F4.6°C 95% 5.0 mph S8.0 kmh S 6.0 mph9.7 kmh 29.77 in1008.1 mb 0.00 in0.0 mm 0.00 in0.0 mm 0.00 in0.0 mm
11:14 PM 41.5°F5.3°C 40.2°F4.6°C 95% 3.0 mph S4.8 kmh S 5.0 mph8.0 kmh 29.77 in1008.1 mb 0.00 in0.0 mm 0.00 in0.0 mm 0.00 in0.0 mm
11:19 PM 41.5°F5.3°C 40.2°F4.6°C 95% 4.0 mph S6.4 kmh S 5.0 mph8.0 kmh 29.77 in1008.1 mb 0.00 in0.0 mm 0.00 in0.0 mm 0.00 in0.0 mm
11:24 PM 41.5°F5.3°C 40.2°F4.6°C 95% 2.0 mph SE3.2 kmh SE 4.0 mph6.4 kmh 29.77 in1008.1 mb 0.00 in0.0 mm 0.00 in0.0 mm 0.00 in0.0 mm
11:29 PM 41.5°F5.3°C 40.2°F4.6°C 95% 3.0 mph SSE4.8 kmh SSE 5.0 mph8.0 kmh 29.77 in1008.1 mb 0.00 in0.0 mm 0.00 in0.0 mm 0.00 in0.0 mm
11:34 PM 41.5°F5.3°C 40.2°F4.6°C 95% 4.0 mph SSE6.4 kmh SSE 5.0 mph8.0 kmh 29.77 in1008.1 mb 0.00 in0.0 mm 0.00 in0.0 mm 0.00 in0.0 mm
11:39 PM 41.5°F5.3°C 40.2°F4.6°C 95% 3.0 mph SE4.8 kmh SE 5.0 mph8.0 kmh 29.77 in1008.1 mb 0.00 in0.0 mm 0.00 in0.0 mm 0.00 in0.0 mm
11:44 PM 41.5°F5.3°C 40.5°F4.7°C 96% 3.0 mph SE4.8 kmh SE 5.0 mph8.0 kmh 29.77 in1008.1 mb 0.00 in0.0 mm 0.00 in0.0 mm 0.00 in0.0 mm
11:49 PM 41.5°F5.3°C 40.5°F4.7°C 96% 4.0 mph SE6.4 kmh SE 7.0 mph11.3 kmh 29.77 in1008.1 mb 0.00 in0.0 mm 0.00 in0.0 mm 0.00 in0.0 mm
11:54 PM 41.5°F5.3°C 40.5°F4.7°C 96% 3.0 mph SSE4.8 kmh SSE 4.0 mph6.4 kmh 29.77 in1008.1 mb 0.00 in0.0 mm 0.00 in0.0 mm 0.00 in0.0 mm